TFM - Tactical Decision Aid (Experimental) INFO Settings

ID: Runway Winds: CIG/VIS Threshold: METAR Board: Map:

kiad - Washington-Dulles Intl

Updated at: 1012 UTC 25 Jan 2015
Latest TAF at: 0904 UTC 25 Jan 2015

TAF Board

Time0952Z25/11Z25/12Z25/13Z25/14Z25/15Z25/16Z25/17Z25/18Z25/19Z25/20Z25/21Z25/22Z25/23Z
TypeOBSPRVLPRVLPRVLPRVLPRVLPRVLPRVLPRVLPRVLPRVLPRVLPRVLPRVL
VIS10>6>6>6>6>6>6>6>6>6>6>6>6>6
CIG--45454545454545454545909090
CoverSCTOVCOVCOVCOVCOVCOVCOVCOVCOVCOVCOVCOVCOVC
FltCatVFRVFRVFRVFRVFRVFRVFRVFRVFRVFRVFRVFRVFRVFR
WX----------------------------
WDir190VRBVRBVRBVRBVRBVRBVRBVRBVRBVRBVRBVRBVRB
WSpd40000000000000
WGst----------------------------
TAF
KIAD 250904Z 2509/2612 00000KT P6SM OVC045
  FM252100 00000KT P6SM OVC090
  FM260100 05005KT 6SM -SN OVC050
  FM260600 08007KT 6SM -SN OVC015
  FM260900 05009KT 6SM -SN OVC008


METAR
KIAD 250952Z 19004KT 10SM SCT045 SCT220 02/M03 A2977 RMK AO2 SLP081 T00171033 $
KIAD 250852Z 00000KT 10SM OVC045 02/M03 A2974 RMK AO2 SLP072 BINOVC T00221028 50014 $

TAF/METAR Board Legend

Potential Impact
  None Marginal Slight Moderate High
Visibility (sm) > ≤X≤ <
Ceiling (100 ft) > ≤X≤ <
Wind Speed (kt) <10 10≤X<20 20≤X<30 ≥30
Wind Gust (kt) <15 15≤X<25 25≤X<35 ≥35
Weather No Wx Reported VCTS -TS,-FZRA TS,FZRA +TS,+FZRA




Notice: Undefined index: kiad in /caws/site/new_awc/application/modules/trafficflowmgmt/controllers/TdaController.php on line 188

Notice: Undefined index: kiad in /caws/site/new_awc/application/modules/trafficflowmgmt/controllers/TdaController.php on line 189